Time;durP1;ratioP1;P1;durP2;ratioP2;P2;SDS_P1;SDS_P2;PMS_P1;PMS_P2;Temp;Humidity;BMP_temperature;BMP_pressure;BME280_temperature;BME280_humidity;BME280_pressure;Samples;Min_cycle;Max_cycle;Signal;HPM_P1;HPM_P2
2022/07/01 00:00:45;;;;;;;3.20;3.00;;;24.30;55.70;;;;;;5051094;28;20445;-90
2022/07/01 00:03:12;;;;;;;3.70;3.40;;;24.40;56.00;;;;;;5047789;28;20470;-91
2022/07/01 00:05:39;;;;;;;6.40;2.60;;;24.40;55.00;;;;;;5052668;28;21244;-90
2022/07/01 00:08:06;;;;;;;6.00;3.07;;;24.20;54.90;;;;;;5036357;28;20992;-91
2022/07/01 00:10:37;;;;;;;3.20;2.93;;;24.30;55.60;;;;;;5048892;28;20831;-89
2022/07/01 00:13:06;;;;;;;6.57;3.47;;;24.40;55.30;;;;;;5046357;28;20493;-90
2022/07/01 00:15:33;;;;;;;3.87;3.00;;;24.20;55.30;;;;;;5046053;28;20528;-89
2022/07/01 00:18:00;;;;;;;2.70;2.50;;;24.10;55.00;;;;;;5047330;28;20442;-90
2022/07/01 00:20:27;;;;;;;2.60;2.40;;;23.90;55.10;;;;;;5050044;28;20441;-90
2022/07/01 00:22:54;;;;;;;2.73;2.47;;;23.80;55.00;;;;;;5030685;28;20469;-89
2022/07/01 00:25:21;;;;;;;2.77;2.50;;;23.90;55.10;;;;;;5044703;28;20940;-88
2022/07/01 00:27:49;;;;;;;2.63;2.10;;;24.00;54.50;;;;;;5048019;28;20463;-90
2022/07/01 00:30:16;;;;;;;2.60;2.40;;;24.00;54.90;;;;;;5048175;28;20846;-90
2022/07/01 00:32:43;;;;;;;2.60;2.20;;;23.90;54.50;;;;;;5049292;28;20448;-89
2022/07/01 00:35:10;;;;;;;2.57;2.37;;;23.90;54.40;;;;;;5048760;28;20469;-90
2022/07/01 00:37:39;;;;;;;2.73;2.13;;;24.20;54.30;;;;;;5036397;28;20456;-89
2022/07/01 00:40:08;;;;;;;2.87;1.60;;;24.10;52.60;;;;;;5047070;28;20445;-89
2022/07/01 00:42:40;;;;;;;2.30;2.10;;;23.90;52.80;;;;;;5032252;28;20485;-88
2022/07/01 00:45:10;;;;;;;2.00;1.80;;;23.90;52.70;;;;;;5064089;28;20552;-89
2022/07/01 00:47:37;;;;;;;2.10;1.90;;;23.90;52.70;;;;;;5047798;28;21425;-89
2022/07/01 00:50:08;;;;;;;1.93;1.67;;;23.80;52.30;;;;;;5030036;28;20495;-90
2022/07/01 00:52:35;;;;;;;1.53;1.43;;;23.70;52.70;;;;;;5029606;28;20460;-89
2022/07/01 00:55:05;;;;;;;2.60;1.43;;;23.90;53.00;;;;;;5050018;28;20488;-89
2022/07/01 00:57:34;;;;;;;1.80;1.70;;;23.90;52.30;;;;;;5046308;28;20450;-89
2022/07/01 01:00:03;;;;;;;1.80;1.70;;;23.60;52.50;;;;;;5046969;28;20449;-88
2022/07/01 01:02:31;;;;;;;1.90;1.80;;;23.20;53.20;;;;;;5020648;28;20553;-90
2022/07/01 01:04:58;;;;;;;2.53;2.00;;;23.10;53.80;;;;;;5031186;28;20664;-89
2022/07/01 01:07:26;;;;;;;1.60;1.50;;;23.10;53.90;;;;;;5045131;28;20460;-89
2022/07/01 01:09:53;;;;;;;1.60;1.50;;;23.00;54.50;;;;;;5030226;28;20468;-89
2022/07/01 01:12:20;;;;;;;1.93;1.83;;;22.90;54.20;;;;;;5047683;28;20456;-89
2022/07/01 01:14:49;;;;;;;1.47;1.37;;;22.80;54.80;;;;;;5045542;28;20473;-90
2022/07/01 01:17:17;;;;;;;1.73;1.23;;;23.00;54.90;;;;;;5047788;28;20437;-90
2022/07/01 01:19:46;;;;;;;1.30;1.13;;;23.10;53.40;;;;;;5047962;28;20459;-90
2022/07/01 01:22:16;;;;;;;1.80;1.10;;;23.20;53.90;;;;;;5050308;28;20722;-90
2022/07/01 01:24:44;;;;;;;1.50;1.33;;;23.20;53.80;;;;;;5036462;28;20466;-91
2022/07/01 01:27:11;;;;;;;1.73;1.37;;;22.60;54.20;;;;;;5049759;28;21045;-91
2022/07/01 01:29:39;;;;;;;1.40;1.10;;;22.60;55.20;;;;;;5050831;28;20453;-90
2022/07/01 01:32:07;;;;;;;1.43;1.13;;;22.60;55.70;;;;;;5050568;28;20957;-93
2022/07/01 01:34:36;;;;;;;1.43;1.00;;;22.90;55.30;;;;;;5034240;28;20444;-91
2022/07/01 01:37:04;;;;;;;1.67;1.20;;;22.90;55.00;;;;;;5036484;28;20455;-91
2022/07/01 01:39:33;;;;;;;1.40;1.30;;;23.00;55.50;;;;;;5054228;28;20436;-91
2022/07/01 01:42:00;;;;;;;1.20;1.10;;;22.80;54.50;;;;;;5034069;28;20775;-91
2022/07/01 01:44:27;;;;;;;2.57;1.13;;;22.80;55.80;;;;;;5051518;28;20457;-91
2022/07/01 01:46:54;;;;;;;1.77;1.17;;;22.70;54.40;;;;;;5055736;28;20437;-91
2022/07/01 01:49:21;;;;;;;3.50;1.10;;;22.60;55.30;;;;;;5018469;28;20457;-91
2022/07/01 01:51:48;;;;;;;1.30;1.20;;;22.60;55.20;;;;;;5070838;28;20973;-91
2022/07/01 01:54:15;;;;;;;1.67;1.20;;;22.80;55.50;;;;;;5052065;28;20502;-91
2022/07/01 01:56:43;;;;;;;1.40;1.30;;;22.80;54.90;;;;;;5027423;28;20967;-93
2022/07/01 01:59:12;;;;;;;1.87;1.20;;;22.80;54.90;;;;;;5063629;28;21257;-91
2022/07/01 02:01:39;;;;;;;1.33;1.10;;;22.60;55.00;;;;;;5055982;28;21024;-93
2022/07/01 02:04:06;;;;;;;1.20;1.03;;;22.20;55.20;;;;;;5055928;28;21137;-92
2022/07/01 02:06:33;;;;;;;1.20;1.10;;;22.10;56.00;;;;;;5047938;28;20438;-91
2022/07/01 02:09:00;;;;;;;1.43;1.10;;;22.10;56.30;;;;;;5036977;28;20464;-92
2022/07/01 02:11:27;;;;;;;2.13;1.10;;;22.10;56.20;;;;;;5047759;28;20434;-91
2022/07/01 02:13:56;;;;;;;1.63;1.30;;;22.20;56.30;;;;;;5057586;28;20964;-89
2022/07/01 02:16:23;;;;;;;1.70;1.20;;;22.30;56.20;;;;;;5061102;28;20455;-92
2022/07/01 02:18:50;;;;;;;4.23;1.10;;;22.20;56.40;;;;;;5066948;28;20444;-92
2022/07/01 02:21:17;;;;;;;1.30;1.20;;;22.20;56.70;;;;;;5051224;28;20481;-93
2022/07/01 02:23:44;;;;;;;1.43;1.20;;;22.20;57.30;;;;;;5052656;28;20521;-93
2022/07/01 02:26:11;;;;;;;3.03;1.23;;;22.10;57.80;;;;;;5062029;28;20491;-92
2022/07/01 02:28:38;;;;;;;1.20;1.10;;;22.20;58.30;;;;;;5068142;28;20966;-91
2022/07/01 02:31:07;;;;;;;1.13;1.00;;;22.20;58.00;;;;;;5067525;28;20452;-92
2022/07/01 02:33:34;;;;;;;1.57;1.20;;;22.20;58.20;;;;;;5047006;28;20541;-92
2022/07/01 02:36:01;;;;;;;1.37;1.20;;;21.50;59.00;;;;;;5059338;28;20518;-90
2022/07/01 02:38:28;;;;;;;1.20;1.10;;;21.30;59.00;;;;;;5066950;28;20615;-91
2022/07/01 02:40:55;;;;;;;1.70;1.50;;;21.20;59.30;;;;;;5047862;28;20554;-91
2022/07/01 02:43:22;;;;;;;4.60;1.40;;;21.20;59.60;;;;;;5037880;28;20477;-92
2022/07/01 02:45:49;;;;;;;1.43;1.27;;;21.40;59.70;;;;;;5036342;28;20461;-90
2022/07/01 02:48:17;;;;;;;3.57;1.10;;;21.30;60.80;;;;;;5058550;28;20979;-90
2022/07/01 02:50:44;;;;;;;1.47;1.10;;;21.30;59.50;;;;;;5029816;28;20454;-91
2022/07/01 02:53:11;;;;;;;1.23;1.13;;;21.20;59.60;;;;;;5056047;28;20452;-91
2022/07/01 02:55:38;;;;;;;1.40;1.20;;;21.30;59.70;;;;;;5053283;28;20446;-90
2022/07/01 02:58:05;;;;;;;1.47;1.10;;;21.60;59.40;;;;;;5041417;28;20460;-90
2022/07/01 03:00:32;;;;;;;1.20;1.10;;;21.80;58.80;;;;;;5056006;28;21024;-91
2022/07/01 03:02:59;;;;;;;1.30;1.10;;;22.10;58.90;;;;;;5044778;28;20461;-91
2022/07/01 03:05:27;;;;;;;4.37;1.33;;;22.20;58.30;;;;;;5041433;28;20460;-90
2022/07/01 03:07:54;;;;;;;2.90;1.23;;;22.20;57.70;;;;;;5023040;28;20453;-90
2022/07/01 03:10:22;;;;;;;4.20;1.50;;;22.20;57.90;;;;;;5054875;28;20441;-89
2022/07/01 03:12:48;;;;;;;2.50;1.40;;;22.20;57.90;;;;;;5050774;28;20524;-90
2022/07/01 03:15:16;;;;;;;1.90;1.37;;;22.10;58.30;;;;;;5043611;28;20483;-90
2022/07/01 03:17:45;;;;;;;2.40;1.40;;;22.10;57.60;;;;;;5043984;28;20453;-91
2022/07/01 03:20:14;;;;;;;2.40;1.20;;;22.10;57.00;;;;;;5067116;28;20442;-90
2022/07/01 03:22:43;;;;;;;1.20;1.10;;;22.00;58.50;;;;;;5036123;28;20459;-91
2022/07/01 03:25:11;;;;;;;1.00;0.90;;;21.80;57.70;;;;;;5026562;28;20472;-90
2022/07/01 03:27:39;;;;;;;1.23;1.13;;;21.80;59.00;;;;;;5047592;28;20448;-90
2022/07/01 03:30:07;;;;;;;1.53;1.20;;;21.90;58.90;;;;;;5066320;28;21276;-90
2022/07/01 03:32:35;;;;;;;1.63;1.10;;;22.00;58.20;;;;;;5049661;28;20460;-90
2022/07/01 03:35:35;;;;;;;3.87;1.30;;;22.20;58.40;;;;;;5047743;28;20530;-89
2022/07/01 03:37:51;;;;;;;1.33;1.23;;;22.20;58.10;;;;;;5032226;28;20468;-90
2022/07/01 03:40:18;;;;;;;1.53;1.20;;;22.00;57.70;;;;;;5061075;28;20467;-91
2022/07/01 03:42:45;;;;;;;3.00;1.30;;;21.90;57.70;;;;;;5050633;28;20503;-90
2022/07/01 03:45:12;;;;;;;1.57;1.30;;;22.00;58.40;;;;;;5053324;28;20471;-91
2022/07/01 03:47:45;;;;;;;1.40;1.30;;;21.90;58.70;;;;;;5050930;28;20927;-91
2022/07/01 03:50:12;;;;;;;1.50;1.40;;;21.80;59.40;;;;;;5069777;28;20937;-91
2022/07/01 03:52:40;;;;;;;1.73;1.30;;;21.60;58.60;;;;;;5039181;28;20459;-90
2022/07/01 03:55:08;;;;;;;1.93;1.60;;;21.90;59.00;;;;;;5023858;28;20480;-90
2022/07/01 03:57:35;;;;;;;1.67;1.57;;;22.00;58.30;;;;;;5047639;28;20976;-90
2022/07/01 04:00:02;;;;;;;1.50;1.40;;;21.90;58.30;;;;;;5048438;28;20448;-90
2022/07/01 04:02:32;;;;;;;1.50;1.33;;;21.90;57.90;;;;;;5036046;28;20454;-90
2022/07/01 04:04:59;;;;;;;1.80;1.50;;;22.00;57.70;;;;;;5061914;28;20896;-92
2022/07/01 04:07:27;;;;;;;1.40;1.30;;;21.90;58.10;;;;;;5048672;28;20455;-90
2022/07/01 04:09:54;;;;;;;6.33;2.17;;;21.80;58.30;;;;;;5065773;28;20524;-92
2022/07/01 04:12:22;;;;;;;1.43;1.33;;;21.80;58.10;;;;;;5062558;28;20476;-91
2022/07/01 04:14:49;;;;;;;2.07;1.40;;;21.80;58.20;;;;;;5033312;28;20468;-90
2022/07/01 04:17:16;;;;;;;1.47;1.37;;;21.90;57.60;;;;;;5048475;28;20453;-91
2022/07/01 04:19:43;;;;;;;3.73;1.73;;;21.70;57.80;;;;;;5030772;28;20453;-91
2022/07/01 04:24:54;;;;;;;1.43;1.20;;;21.60;58.60;;;;;;5048787;28;20507;-90
2022/07/01 04:27:22;;;;;;;2.10;1.90;;;21.50;58.50;;;;;;5015570;28;20995;-91
2022/07/01 04:29:49;;;;;;;1.30;1.20;;;21.40;58.60;;;;;;5032290;28;20449;-90
2022/07/01 04:32:16;;;;;;;1.80;1.70;;;21.20;58.40;;;;;;5047833;28;20458;-91
2022/07/01 04:34:43;;;;;;;1.40;1.30;;;21.00;58.50;;;;;;5045414;28;20506;-92
2022/07/01 04:37:11;;;;;;;1.57;1.47;;;20.60;59.90;;;;;;5053251;28;20446;-92
2022/07/01 04:39:38;;;;;;;2.60;1.70;;;20.50;59.80;;;;;;5032132;28;21066;-91
2022/07/01 04:42:05;;;;;;;2.00;1.80;;;20.70;60.60;;;;;;5032142;28;20452;-90
2022/07/01 04:44:34;;;;;;;1.73;1.63;;;21.00;60.90;;;;;;5017754;28;20845;-90
2022/07/01 04:47:02;;;;;;;1.60;1.50;;;21.20;60.40;;;;;;5034241;28;20452;-91
2022/07/01 04:49:30;;;;;;;1.60;1.50;;;21.40;60.20;;;;;;5047208;28;20448;-91
2022/07/01 04:51:58;;;;;;;2.97;1.40;;;21.30;58.70;;;;;;5047915;28;20468;-91
2022/07/01 04:54:26;;;;;;;1.30;1.07;;;21.00;58.90;;;;;;5031494;28;20515;-92
2022/07/01 04:56:53;;;;;;;1.63;1.50;;;21.10;59.30;;;;;;5058267;28;20964;-92
2022/07/01 04:59:20;;;;;;;1.60;1.50;;;21.10;60.30;;;;;;5047815;28;20867;-90
2022/07/01 05:01:49;;;;;;;1.80;1.50;;;21.10;59.70;;;;;;5040186;28;20466;-92
2022/07/01 05:04:17;;;;;;;1.70;1.43;;;21.20;59.80;;;;;;5039843;28;20472;-91
2022/07/01 05:06:44;;;;;;;3.60;1.70;;;21.20;59.70;;;;;;5051161;28;20452;-92
2022/07/01 05:09:11;;;;;;;1.70;1.60;;;20.90;59.10;;;;;;5058047;28;20452;-91
2022/07/01 05:11:39;;;;;;;3.90;1.57;;;21.00;60.10;;;;;;5041494;28;20448;-91
2022/07/01 05:14:07;;;;;;;1.80;1.70;;;21.10;59.70;;;;;;5049529;28;21023;-90
2022/07/01 05:16:34;;;;;;;1.80;1.70;;;21.10;60.40;;;;;;5048162;28;20544;-91
2022/07/01 05:22:02;;;;;;;2.00;1.80;;;21.10;60.50;;;;;;5025999;28;20441;-91
2022/07/01 05:24:31;;;;;;;1.70;1.60;;;21.10;59.60;;;;;;5048108;28;20481;-92
2022/07/01 05:27:00;;;;;;;3.47;1.87;;;20.80;59.90;;;;;;5035513;28;20457;-90
2022/07/01 05:29:28;;;;;;;1.63;1.33;;;20.70;60.10;;;;;;5028962;28;20767;-93
2022/07/01 05:31:56;;;;;;;2.07;1.87;;;20.40;60.60;;;;;;5034279;28;20460;-92
2022/07/01 05:34:24;;;;;;;2.20;2.00;;;20.30;60.50;;;;;;5024236;28;20499;-92
2022/07/01 05:36:51;;;;;;;1.73;1.63;;;20.50;60.90;;;;;;5040328;28;20468;-91
2022/07/01 05:39:19;;;;;;;1.50;1.40;;;20.20;60.60;;;;;;5050939;28;20542;-94
2022/07/01 05:41:46;;;;;;;1.97;1.20;;;20.10;60.60;;;;;;5043258;28;20448;-93
2022/07/01 05:44:13;;;;;;;1.73;1.40;;;20.20;60.80;;;;;;5043353;28;20511;-91
2022/07/01 05:46:41;;;;;;;1.87;1.70;;;20.20;60.60;;;;;;5048236;28;20560;-90
2022/07/01 05:49:08;;;;;;;1.70;1.60;;;20.20;61.00;;;;;;5066087;28;21229;-93
2022/07/01 05:51:36;;;;;;;1.60;1.50;;;20.50;61.00;;;;;;5022149;28;20495;-92
2022/07/01 05:54:03;;;;;;;1.80;1.70;;;20.50;60.00;;;;;;5048934;28;20456;-92
2022/07/01 05:56:30;;;;;;;1.47;1.37;;;20.40;60.40;;;;;;5051879;28;20503;-92
2022/07/01 05:58:57;;;;;;;1.80;1.70;;;20.40;61.50;;;;;;5052598;28;20533;-91
2022/07/01 06:01:24;;;;;;;2.37;1.60;;;20.50;60.90;;;;;;5038281;28;20457;-92
2022/07/01 06:03:51;;;;;;;1.50;1.40;;;20.50;60.10;;;;;;5019307;28;20469;-92
2022/07/01 06:06:19;;;;;;;1.70;1.60;;;20.40;60.20;;;;;;5052059;28;20518;-92
2022/07/01 06:08:48;;;;;;;1.63;1.40;;;20.30;60.90;;;;;;5050084;28;20465;-91
2022/07/01 06:11:15;;;;;;;1.37;1.27;;;20.50;60.30;;;;;;5028419;28;20896;-92
2022/07/01 06:13:42;;;;;;;3.07;1.50;;;20.80;60.50;;;;;;5046664;28;20467;-92
2022/07/01 06:16:09;;;;;;;2.63;1.53;;;20.60;59.80;;;;;;5046549;28;21180;-91
2022/07/01 06:18:36;;;;;;;1.53;1.43;;;20.70;60.10;;;;;;5066978;28;20539;-92
2022/07/01 06:21:03;;;;;;;1.50;1.40;;;20.90;60.40;;;;;;5057842;28;20788;-92
2022/07/01 06:23:30;;;;;;;1.60;1.50;;;21.10;58.90;;;;;;5034288;28;20453;-92
2022/07/01 06:25:58;;;;;;;2.63;1.53;;;21.10;58.90;;;;;;5038967;28;20456;-91
2022/07/01 06:28:29;;;;;;;1.63;1.53;;;21.30;58.80;;;;;;5039548;28;20540;-93
2022/07/01 06:30:57;;;;;;;4.30;1.60;;;21.40;58.30;;;;;;5044574;28;20535;-93
2022/07/01 06:33:25;;;;;;;2.37;1.50;;;21.50;58.10;;;;;;5027546;28;20488;-92
2022/07/01 06:35:52;;;;;;;1.37;1.27;;;21.50;58.40;;;;;;5067908;28;20483;-92
2022/07/01 06:38:19;;;;;;;5.33;1.33;;;21.40;58.00;;;;;;5042741;28;21178;-92
2022/07/01 06:41:26;;;;;;;1.37;1.27;;;21.40;57.60;;;;;;5050388;28;20452;-91
2022/07/01 06:43:36;;;;;;;2.60;1.30;;;21.40;57.70;;;;;;5066044;28;20484;-91
2022/07/01 06:46:03;;;;;;;1.93;1.30;;;21.40;58.30;;;;;;5050148;28;20442;-90
2022/07/01 06:48:30;;;;;;;1.50;1.20;;;21.30;57.70;;;;;;5046578;28;20810;-90
2022/07/01 06:50:57;;;;;;;1.97;1.50;;;21.30;57.50;;;;;;5047428;28;20560;-91
2022/07/01 06:53:24;;;;;;;1.40;1.30;;;20.90;58.10;;;;;;5016502;28;21149;-90
2022/07/01 06:55:51;;;;;;;3.83;1.27;;;21.20;58.50;;;;;;5048519;28;20443;-91
2022/07/01 06:58:18;;;;;;;2.00;1.30;;;21.40;57.90;;;;;;5069409;28;20906;-91
2022/07/01 07:00:47;;;;;;;2.20;1.33;;;21.60;58.40;;;;;;5021694;28;20437;-92
2022/07/01 07:03:14;;;;;;;1.50;1.40;;;21.80;57.60;;;;;;5033672;28;20890;-91
2022/07/01 07:05:41;;;;;;;2.57;1.47;;;21.50;56.70;;;;;;5033156;28;20479;-88
2022/07/01 07:08:08;;;;;;;4.30;1.50;;;21.30;56.70;;;;;;5017801;28;21133;-89
2022/07/01 07:10:35;;;;;;;2.30;1.20;;;21.20;58.40;;;;;;5048480;28;20949;-89
2022/07/01 07:13:02;;;;;;;2.23;1.40;;;21.50;58.00;;;;;;5059863;28;20522;-89
2022/07/01 07:15:29;;;;;;;1.20;1.10;;;21.70;57.20;;;;;;5035307;28;20485;-89
2022/07/01 07:17:57;;;;;;;2.00;1.37;;;21.80;57.50;;;;;;5047253;28;20468;-88
2022/07/01 07:20:24;;;;;;;1.30;1.20;;;21.60;56.40;;;;;;5044614;28;20433;-89
2022/07/01 07:22:52;;;;;;;3.43;1.23;;;21.60;56.80;;;;;;5052236;28;20446;-91
2022/07/01 07:25:19;;;;;;;1.33;1.23;;;21.70;57.30;;;;;;5052345;28;20471;-91
2022/07/01 07:27:47;;;;;;;1.90;1.30;;;21.50;57.00;;;;;;5049759;28;20440;-90
2022/07/01 07:30:14;;;;;;;1.63;1.50;;;21.70;56.60;;;;;;5045933;28;20658;-90
2022/07/01 07:32:41;;;;;;;1.40;1.30;;;21.60;56.60;;;;;;5063968;28;20444;-91
2022/07/01 07:35:11;;;;;;;2.23;1.50;;;21.80;56.90;;;;;;5048467;28;20475;-89
2022/07/01 07:37:38;;;;;;;2.17;1.30;;;21.90;56.60;;;;;;5048975;28;20830;-89
2022/07/01 07:40:07;;;;;;;1.40;1.30;;;21.90;56.60;;;;;;5049092;28;21071;-89
2022/07/01 07:42:35;;;;;;;2.27;1.60;;;21.80;56.40;;;;;;5047299;28;20472;-89
2022/07/01 07:45:02;;;;;;;1.10;1.00;;;21.90;56.80;;;;;;5047938;28;20988;-88
2022/07/01 07:47:29;;;;;;;1.50;1.40;;;21.70;56.20;;;;;;5056559;28;20883;-89
2022/07/01 07:49:56;;;;;;;1.80;1.30;;;21.80;56.90;;;;;;5038522;28;20445;-89
2022/07/01 07:52:25;;;;;;;1.77;1.67;;;21.80;57.20;;;;;;5045182;28;20833;-89
2022/07/01 07:54:52;;;;;;;1.40;1.30;;;21.60;56.70;;;;;;5038647;28;20473;-89
2022/07/01 07:57:19;;;;;;;3.43;1.60;;;21.60;57.00;;;;;;5052172;28;20544;-88
2022/07/01 07:59:46;;;;;;;2.23;1.70;;;21.60;56.80;;;;;;5062632;28;20551;-88
2022/07/01 08:02:13;;;;;;;4.63;1.90;;;21.70;58.00;;;;;;5050352;28;20487;-88
2022/07/01 08:04:40;;;;;;;5.20;1.93;;;21.90;57.60;;;;;;5061171;28;21351;-87
2022/07/01 08:07:07;;;;;;;1.63;1.53;;;22.00;57.70;;;;;;5062720;28;20461;-87
2022/07/01 08:09:35;;;;;;;3.23;1.40;;;21.90;57.80;;;;;;5063096;28;20452;-87
2022/07/01 08:12:03;;;;;;;1.70;1.40;;;21.90;58.20;;;;;;5048360;28;20465;-87
2022/07/01 08:14:30;;;;;;;2.17;1.60;;;21.90;57.60;;;;;;5046729;28;20549;-88
2022/07/01 08:16:57;;;;;;;2.33;1.47;;;21.90;57.60;;;;;;5063919;28;20987;-88
2022/07/01 08:19:24;;;;;;;1.90;1.63;;;21.90;57.70;;;;;;5032349;28;20717;-88
2022/07/01 08:21:51;;;;;;;4.20;1.50;;;21.80;58.50;;;;;;5065279;28;20441;-87
2022/07/01 08:24:18;;;;;;;5.73;1.87;;;21.80;57.90;;;;;;5033616;28;20474;-87
2022/07/01 08:26:47;;;;;;;2.10;1.20;;;21.80;58.40;;;;;;5046443;28;20844;-87
2022/07/01 08:29:14;;;;;;;3.13;1.70;;;21.80;58.60;;;;;;5019084;28;20457;-88
2022/07/01 08:31:41;;;;;;;4.67;1.57;;;21.70;58.60;;;;;;5018412;28;20577;-88
2022/07/01 08:34:09;;;;;;;1.40;1.30;;;21.60;58.50;;;;;;5042207;28;20476;-88
2022/07/01 08:36:36;;;;;;;1.40;1.30;;;21.50;58.00;;;;;;5046219;28;20539;-87
2022/07/01 08:39:03;;;;;;;1.43;1.10;;;21.40;58.40;;;;;;5045000;28;20460;-88
2022/07/01 08:41:30;;;;;;;2.87;1.27;;;21.30;58.30;;;;;;5047497;28;20448;-88
2022/07/01 08:43:59;;;;;;;1.50;1.30;;;21.40;58.00;;;;;;5045101;28;20500;-87
2022/07/01 08:46:27;;;;;;;1.30;1.10;;;21.50;58.60;;;;;;5037566;28;20466;-88
2022/07/01 08:48:54;;;;;;;1.30;1.20;;;21.60;58.20;;;;;;5063093;28;20457;-87
2022/07/01 08:51:21;;;;;;;1.60;1.37;;;21.70;58.40;;;;;;5043836;28;20466;-87
2022/07/01 08:53:48;;;;;;;1.83;1.40;;;21.80;58.00;;;;;;5046828;28;20488;-92
2022/07/01 08:59:01;;;;;;;1.27;1.00;;;21.70;57.80;;;;;;5066101;28;20429;-92
2022/07/01 09:01:28;;;;;;;1.53;1.30;;;21.60;57.20;;;;;;5049085;28;20488;-91
2022/07/01 09:04:05;;;;;;;2.10;1.27;;;21.60;57.30;;;;;;5033180;28;20453;-92
2022/07/01 09:06:32;;;;;;;1.40;1.30;;;21.30;58.30;;;;;;5039810;28;20469;-92
2022/07/01 09:09:12;;;;;;;1.57;1.40;;;21.30;58.70;;;;;;5039606;28;21012;-91
2022/07/01 09:11:46;;;;;;;1.93;1.30;;;21.40;58.80;;;;;;5029172;28;20463;-92
2022/07/01 09:14:16;;;;;;;1.73;1.30;;;21.60;57.50;;;;;;5052573;28;20485;-91
2022/07/01 09:16:45;;;;;;;1.67;1.30;;;21.60;57.90;;;;;;5052484;28;20530;-92
2022/07/01 09:19:13;;;;;;;2.07;1.30;;;21.30;58.10;;;;;;5049892;28;20445;-92
2022/07/01 09:21:41;;;;;;;1.60;1.30;;;21.20;58.70;;;;;;5037217;28;20457;-91
2022/07/01 09:24:27;;;;;;;1.50;1.37;;;21.00;58.40;;;;;;5051651;28;20580;-90
2022/07/01 09:26:56;;;;;;;1.90;1.80;;;20.90;59.10;;;;;;5052628;28;20623;-92
2022/07/01 09:29:31;;;;;;;1.23;1.13;;;20.90;59.30;;;;;;5031844;28;20460;-92
2022/07/01 09:31:58;;;;;;;1.53;1.43;;;20.90;59.70;;;;;;5047064;28;20522;-93
2022/07/01 09:34:26;;;;;;;2.10;1.50;;;20.80;59.80;;;;;;5038523;28;20464;-92
2022/07/01 09:36:54;;;;;;;1.70;1.60;;;20.80;59.40;;;;;;5053312;28;20465;-90
2022/07/01 09:39:21;;;;;;;1.50;1.40;;;21.00;60.20;;;;;;5036161;28;21001;-90
2022/07/01 09:41:48;;;;;;;2.10;1.30;;;21.10;59.30;;;;;;5035477;28;20541;-91
2022/07/01 09:44:15;;;;;;;2.20;1.50;;;21.20;58.80;;;;;;5054401;28;20502;-91
2022/07/01 09:46:55;;;;;;;1.93;1.50;;;21.30;58.60;;;;;;5023102;28;20464;-91
2022/07/01 09:49:23;;;;;;;3.20;1.80;;;21.40;58.40;;;;;;5041208;28;21599;-91
2022/07/01 09:51:50;;;;;;;1.77;1.63;;;21.40;57.70;;;;;;5053317;28;20972;-90
2022/07/01 09:54:18;;;;;;;1.87;1.20;;;21.50;58.10;;;;;;5050960;28;20596;-91
2022/07/01 09:56:45;;;;;;;2.67;1.60;;;21.60;57.30;;;;;;5053797;28;21032;-91
2022/07/01 09:59:12;;;;;;;1.47;1.37;;;21.60;58.10;;;;;;5052603;28;20567;-91
2022/07/01 10:01:40;;;;;;;1.50;1.30;;;21.50;57.70;;;;;;5053619;28;20460;-91
2022/07/01 10:04:11;;;;;;;1.63;1.50;;;21.50;58.20;;;;;;5051772;28;21330;-90
2022/07/01 10:06:59;;;;;;;1.50;1.40;;;21.50;57.10;;;;;;5055436;28;20488;-91
2022/07/01 10:10:06;;;;;;;1.60;1.50;;;21.50;58.10;;;;;;5042702;28;20457;-91
2022/07/01 10:12:37;;;;;;;2.33;1.83;;;21.60;59.00;;;;;;5047983;28;20476;-91
2022/07/01 10:15:06;;;;;;;1.57;1.47;;;21.70;58.00;;;;;;5048666;28;20844;-91
2022/07/01 10:17:36;;;;;;;4.20;1.70;;;21.80;57.80;;;;;;5051152;28;21377;-91
2022/07/01 10:20:14;;;;;;;2.00;1.80;;;21.60;57.40;;;;;;5051792;28;20562;-91
2022/07/01 10:22:42;;;;;;;1.70;1.60;;;21.60;57.50;;;;;;5034303;28;21455;-91
2022/07/01 10:25:31;;;;;;;3.33;1.70;;;21.80;57.50;;;;;;5026721;28;20827;-92
2022/07/01 10:28:23;;;;;;;1.97;1.87;;;21.80;57.80;;;;;;5060761;28;21259;-91
2022/07/01 10:30:56;;;;;;;1.77;1.67;;;21.60;57.20;;;;;;5059505;28;20444;-92
2022/07/01 10:33:41;;;;;;;2.40;2.00;;;21.70;58.30;;;;;;5041382;28;20534;-91
2022/07/01 10:36:16;;;;;;;2.20;2.00;;;21.60;58.80;;;;;;5040889;28;20465;-91
2022/07/01 10:39:14;;;;;;;2.43;1.90;;;21.60;58.10;;;;;;5041875;28;20956;-91
2022/07/01 10:41:43;;;;;;;3.50;2.10;;;21.50;57.70;;;;;;5031124;28;20534;-91
2022/07/01 10:44:11;;;;;;;1.97;1.87;;;21.50;58.70;;;;;;5051773;28;20472;-90
2022/07/01 10:46:43;;;;;;;2.20;1.90;;;21.80;59.00;;;;;;5053236;28;20460;-91
2022/07/01 10:49:12;;;;;;;2.23;2.03;;;21.70;58.60;;;;;;5049356;28;20883;-91
2022/07/01 10:51:59;;;;;;;3.93;2.30;;;21.60;57.90;;;;;;5021562;28;20531;-92
2022/07/01 10:54:49;;;;;;;3.20;2.50;;;21.90;57.50;;;;;;5038640;28;21071;-91
2022/07/01 10:57:31;;;;;;;3.10;1.93;;;22.00;56.60;;;;;;5039401;28;20517;-92
2022/07/01 11:00:31;;;;;;;2.03;1.83;;;21.80;57.50;;;;;;5052545;28;20464;-91
2022/07/01 11:03:07;;;;;;;3.23;1.80;;;21.90;57.70;;;;;;5051882;28;20514;-90
2022/07/01 11:05:36;;;;;;;1.80;1.70;;;21.90;57.60;;;;;;5049491;28;21035;-92
2022/07/01 11:08:06;;;;;;;4.07;2.20;;;21.80;57.60;;;;;;5051852;28;20653;-92
2022/07/01 11:10:34;;;;;;;4.00;2.30;;;21.80;56.80;;;;;;5050801;28;20448;-92
2022/07/01 11:13:01;;;;;;;3.97;2.20;;;21.70;57.60;;;;;;5050481;28;20572;-90
2022/07/01 11:15:30;;;;;;;3.83;2.40;;;21.70;58.70;;;;;;5029793;28;20473;-91
2022/07/01 11:17:58;;;;;;;2.13;1.90;;;21.80;56.90;;;;;;5024917;28;21035;-91
2022/07/01 11:20:26;;;;;;;3.50;2.10;;;21.70;58.20;;;;;;5031456;28;20446;-90
2022/07/01 11:22:54;;;;;;;3.63;2.17;;;21.60;57.60;;;;;;5042168;28;20456;-91
2022/07/01 11:25:23;;;;;;;3.23;2.07;;;21.70;57.20;;;;;;5035540;28;21380;-92
2022/07/01 11:27:52;;;;;;;5.50;2.43;;;21.80;57.50;;;;;;5039149;28;20449;-91
2022/07/01 11:30:20;;;;;;;3.03;1.80;;;22.00;57.40;;;;;;5051041;28;20464;-92
2022/07/01 11:32:50;;;;;;;3.20;2.00;;;21.90;56.30;;;;;;5043883;28;21212;-92
2022/07/01 11:40:53;;;;;;;2.57;2.37;;;21.90;56.60;;;;;;5049289;28;20504;-91
2022/07/01 11:43:22;;;;;;;4.03;2.30;;;22.10;56.80;;;;;;5040966;28;20442;-91
2022/07/01 11:45:49;;;;;;;2.27;1.90;;;22.20;57.00;;;;;;5041922;28;20639;-91
2022/07/01 11:48:29;;;;;;;2.67;1.70;;;22.40;56.70;;;;;;5052288;28;20975;-91
2022/07/01 11:50:57;;;;;;;2.00;1.80;;;22.60;54.70;;;;;;5053727;28;20533;-93
2022/07/01 11:53:25;;;;;;;1.83;1.63;;;22.60;54.00;;;;;;5020451;28;20496;-91
2022/07/01 11:55:53;;;;;;;2.50;2.30;;;22.60;54.90;;;;;;5035510;28;20891;-91
2022/07/01 11:58:21;;;;;;;1.67;1.50;;;22.60;54.50;;;;;;5031090;28;20440;-90
2022/07/01 12:00:48;;;;;;;2.00;1.80;;;22.50;54.00;;;;;;5050592;28;20445;-91
2022/07/01 12:03:30;;;;;;;1.90;1.77;;;22.60;55.50;;;;;;5057865;28;20442;-90
2022/07/01 12:05:57;;;;;;;2.10;1.90;;;22.80;54.60;;;;;;5052350;28;20876;-90
2022/07/01 12:08:24;;;;;;;2.17;1.97;;;22.90;53.70;;;;;;5050169;28;20437;-90
2022/07/01 12:10:53;;;;;;;3.13;2.30;;;22.80;53.80;;;;;;5035768;28;20455;-90
2022/07/01 12:13:24;;;;;;;2.30;2.10;;;22.90;53.90;;;;;;5047710;28;20808;-91
2022/07/01 12:15:51;;;;;;;3.10;2.27;;;22.70;51.90;;;;;;5065554;28;20447;-91
2022/07/01 12:18:19;;;;;;;4.10;2.40;;;22.70;53.00;;;;;;5049042;28;20463;-91
2022/07/01 12:20:51;;;;;;;1.80;1.70;;;23.00;52.50;;;;;;5063484;28;20448;-92
2022/07/01 12:23:18;;;;;;;2.70;1.90;;;23.60;50.90;;;;;;5066802;28;20541;-93
2022/07/01 12:25:50;;;;;;;1.97;1.50;;;23.70;52.30;;;;;;5062023;28;20450;-93
2022/07/01 12:28:29;;;;;;;2.07;1.60;;;24.20;52.00;;;;;;5053264;28;20479;-93
2022/07/01 12:31:02;;;;;;;3.87;1.87;;;24.70;50.30;;;;;;5050343;28;20437;-93
2022/07/01 12:33:29;;;;;;;6.87;2.17;;;24.50;47.10;;;;;;5028066;28;20466;-92
2022/07/01 12:35:56;;;;;;;2.40;1.60;;;24.40;50.30;;;;;;5033978;28;20440;-90
2022/07/01 12:38:23;;;;;;;2.13;1.80;;;24.50;49.50;;;;;;5044246;28;20464;-92
2022/07/01 12:40:51;;;;;;;2.40;1.80;;;24.50;48.70;;;;;;5022132;28;20465;-91
2022/07/01 12:43:28;;;;;;;2.13;1.50;;;24.60;49.20;;;;;;5033927;28;20450;-92
2022/07/01 12:45:57;;;;;;;2.33;1.73;;;24.30;49.10;;;;;;5036858;28;20473;-92
2022/07/01 12:48:25;;;;;;;1.63;1.53;;;24.30;47.80;;;;;;5066784;28;20542;-91
2022/07/01 12:50:57;;;;;;;1.50;1.40;;;24.40;48.60;;;;;;5069805;28;20449;-92
2022/07/01 12:53:26;;;;;;;3.63;1.80;;;24.40;48.90;;;;;;5037201;28;20449;-92
2022/07/01 12:55:55;;;;;;;2.13;1.90;;;24.30;47.90;;;;;;5067479;28;20456;-92
2022/07/01 12:58:24;;;;;;;3.40;1.50;;;24.50;48.80;;;;;;5038953;28;21123;-91
2022/07/01 13:00:53;;;;;;;1.80;1.70;;;24.90;47.70;;;;;;5037594;28;20492;-94
2022/07/01 13:03:23;;;;;;;3.17;2.00;;;25.00;47.80;;;;;;5038803;28;20450;-92
2022/07/01 13:05:51;;;;;;;3.60;1.93;;;25.00;46.90;;;;;;5033491;28;20463;-90
2022/07/01 13:08:19;;;;;;;1.50;1.40;;;25.20;48.00;;;;;;5041226;28;20436;-90
2022/07/01 13:10:47;;;;;;;1.70;1.60;;;25.10;45.00;;;;;;5047598;28;20798;-90